Weather at Canberra International Airport

Public forecast

Using degrees Celsius for public forecast. Weather courtesy of forecast.io.

Current aviation weather report (METAR) for Canberra International Airport

Retrieved 2020/11/24 00:30 UTC (0 seconds ago):

YSCB 240030Z AUTO 15004KT 110V180 9999 // BKN045 20/10 Q1012

Aviation forecast (TAF) for Canberra International Airport

Retrieved 2020/11/23 21:36 UTC (3 hours ago):

TAF YSCB 231936Z 2321/2418 14006KT CAVOK FM240300 02009KT 9999 FEW045 BECMG 2409/2411 11006KT 9999 BKN010